createdAt,value
2018-11-20T00:00:03.108Z,99.99
2018-11-20T00:01:03.372Z,99.99
2018-11-20T00:02:03.108Z,99.99
2018-11-20T00:03:03.140Z,99.99
2018-11-20T00:04:03.262Z,99.99
2018-11-20T00:05:03.165Z,99.99
2018-11-20T00:06:03.343Z,99.99
2018-11-20T00:07:03.296Z,99.99
2018-11-20T00:08:03.194Z,99.99
2018-11-20T00:09:03.206Z,99.99
2018-11-20T00:10:03.326Z,99.99
2018-11-20T00:11:03.263Z,99.99
2018-11-20T00:12:03.219Z,99.99
2018-11-20T00:13:03.251Z,99.99
2018-11-20T00:14:03.235Z,99.99
2018-11-20T00:15:03.530Z,99.99
2018-11-20T00:16:03.281Z,99.99
2018-11-20T00:17:03.409Z,99.99
2018-11-20T00:18:03.296Z,99.99
2018-11-20T00:19:03.315Z,99.99
2018-11-20T00:20:03.457Z,99.99
2018-11-20T00:21:03.334Z,99.99
2018-11-20T00:22:03.342Z,99.99
2018-11-20T00:23:03.353Z,99.99
2018-11-20T00:24:03.365Z,99.99
2018-11-20T00:25:03.650Z,99.99
2018-11-20T00:26:03.508Z,99.99
2018-11-20T00:27:03.397Z,99.99
2018-11-20T00:28:03.532Z,99.99
2018-11-20T00:29:03.428Z,99.99
2018-11-20T00:30:03.623Z,99.99
2018-11-20T00:31:03.444Z,99.99
2018-11-20T00:32:03.462Z,99.99
2018-11-20T00:33:03.588Z,99.99
2018-11-20T00:34:03.469Z,99.99
2018-11-20T00:35:03.547Z,99.99
2018-11-20T00:36:03.620Z,99.99
2018-11-20T00:37:03.788Z,99.99
2018-11-20T00:38:03.516Z,99.99
2018-11-20T00:39:03.661Z,99.99
2018-11-20T00:40:03.666Z,99.99
2018-11-20T00:41:03.544Z,99.99
2018-11-20T00:42:03.838Z,99.99
2018-11-20T00:43:03.591Z,99.99
2018-11-20T00:44:03.606Z,99.99
2018-11-20T00:45:03.726Z,99.99
2018-11-20T00:46:03.615Z,99.99
2018-11-20T00:47:03.776Z,99.99
2018-11-20T00:48:03.636Z,99.99
2018-11-20T00:49:03.640Z,99.99
2018-11-20T00:50:03.669Z,99.99
2018-11-20T00:51:03.801Z,99.99
2018-11-20T00:52:03.691Z,99.99
2018-11-20T00:53:03.967Z,99.99
2018-11-20T00:54:03.830Z,99.99
2018-11-20T00:55:03.718Z,99.99
2018-11-20T00:56:03.737Z,99.99
2018-11-20T00:57:03.752Z,99.99
2018-11-20T00:58:03.853Z,99.99
2018-11-20T00:59:03.765Z,99.99
2018-11-20T01:00:03.774Z,99.99
2018-11-20T01:01:03.911Z,99.99
2018-11-20T01:02:03.797Z,99.99
2018-11-20T01:03:03.905Z,99.99
2018-11-20T01:04:03.827Z,99.99
2018-11-20T01:05:03.822Z,99.99
2018-11-20T01:06:03.852Z,99.99
2018-11-20T01:07:03.849Z,99.99
2018-11-20T01:08:03.981Z,99.99
2018-11-20T01:09:03.869Z,99.99
2018-11-20T01:10:03.922Z,99.99
2018-11-20T01:11:04.023Z,99.99
2018-11-20T01:12:03.904Z,99.99
2018-11-20T01:13:04.093Z,99.99
2018-11-20T01:14:04.300Z,99.99
2018-11-20T01:15:03.958Z,99.99
2018-11-20T01:16:03.963Z,99.99
2018-11-20T01:17:04.112Z,99.99
2018-11-20T01:18:03.998Z,99.99
2018-11-20T01:19:04.115Z,99.99
2018-11-20T01:20:04.002Z,99.99
2018-11-20T01:21:04.008Z,99.99
2018-11-20T01:22:04.190Z,99.99
2018-11-20T01:23:04.086Z,99.99
2018-11-20T01:24:04.175Z,99.99
2018-11-20T01:25:04.054Z,99.99
2018-11-20T01:26:04.064Z,99.99
2018-11-20T01:27:04.364Z,99.99
2018-11-20T01:28:04.082Z,99.99
2018-11-20T01:29:04.109Z,99.99
2018-11-20T01:30:04.118Z,99.99
2018-11-20T01:31:04.167Z,99.99
2018-11-20T01:32:04.143Z,99.99
2018-11-20T01:33:04.301Z,99.99
2018-11-20T01:34:04.286Z,99.99
2018-11-20T01:35:04.180Z,99.99
2018-11-20T01:36:04.188Z,99.99
2018-11-20T01:37:04.320Z,99.99
2018-11-20T01:38:04.366Z,99.99
2018-11-20T01:39:04.344Z,99.99
2018-11-20T01:40:04.273Z,99.99
2018-11-20T01:41:04.368Z,99.99
2018-11-20T01:42:04.374Z,99.99
2018-11-20T01:43:04.367Z,99.99
2018-11-20T01:44:04.293Z,99.99
2018-11-20T01:45:04.414Z,99.99
2018-11-20T01:46:04.299Z,99.99
2018-11-20T01:47:04.304Z,99.99
2018-11-20T01:48:04.470Z,99.99
2018-11-20T01:49:04.343Z,99.99
2018-11-20T01:50:04.337Z,99.99
2018-11-20T01:51:04.357Z,99.99
2018-11-20T01:52:04.388Z,99.99
2018-11-20T01:53:04.484Z,99.99
2018-11-20T01:54:04.382Z,99.99
2018-11-20T01:55:04.405Z,99.99
2018-11-20T01:56:04.540Z,99.99
2018-11-20T01:57:04.443Z,99.99
2018-11-20T01:58:04.655Z,99.99
2018-11-20T01:59:04.571Z,99.99
2018-11-20T02:00:04.453Z,99.99
2018-11-20T02:01:04.468Z,99.99
2018-11-20T02:02:04.603Z,99.99
2018-11-20T02:03:04.646Z,99.99
2018-11-20T02:04:04.658Z,99.99
2018-11-20T02:05:04.634Z,99.99
2018-11-20T02:06:04.653Z,99.99
2018-11-20T02:07:04.535Z,99.99
2018-11-20T02:08:04.717Z,99.99
2018-11-20T02:09:04.570Z,99.99
2018-11-20T02:10:04.693Z,99.99
2018-11-20T02:11:04.710Z,99.99
2018-11-20T02:12:04.591Z,99.99
2018-11-20T02:13:04.663Z,99.99
2018-11-20T02:14:04.617Z,99.99
2018-11-20T02:15:04.753Z,99.99
2018-11-20T02:16:04.769Z,99.99
2018-11-20T02:17:04.656Z,99.99
2018-11-20T02:18:04.765Z,99.99
2018-11-20T02:19:04.677Z,99.99
2018-11-20T02:20:04.828Z,99.99
2018-11-20T02:21:04.712Z,99.99
2018-11-20T02:22:04.701Z,99.99
2018-11-20T02:23:04.777Z,99.99
2018-11-20T02:24:04.857Z,99.99
2018-11-20T02:25:04.755Z,99.99
2018-11-20T02:26:04.874Z,99.99
2018-11-20T02:27:04.764Z,99.99
2018-11-20T02:28:08.603Z,99.99
2018-11-20T02:29:04.913Z,99.99
2018-11-20T02:30:04.924Z,99.99
2018-11-20T02:31:04.799Z,99.99
2018-11-20T02:32:04.824Z,99.99
2018-11-20T02:33:04.934Z,99.99
2018-11-20T02:34:04.881Z,99.99
2018-11-20T02:35:04.857Z,99.99
2018-11-20T02:36:04.869Z,99.99
2018-11-20T02:37:04.996Z,99.99
2018-11-20T02:38:04.988Z,99.99
2018-11-20T02:39:05.024Z,99.99
2018-11-20T02:40:04.919Z,99.99
2018-11-20T02:41:04.975Z,99.99
2018-11-20T02:42:04.945Z,99.99
2018-11-20T02:43:05.041Z,99.99
2018-11-20T02:44:04.945Z,99.99
2018-11-20T02:45:04.965Z,99.99
2018-11-20T02:46:05.101Z,99.99
2018-11-20T02:47:05.050Z,99.99
2018-11-20T02:48:05.110Z,99.99
2018-11-20T02:49:05.016Z,99.99
2018-11-20T02:50:05.022Z,99.99
2018-11-20T02:51:05.028Z,99.99
2018-11-20T02:52:05.045Z,99.99
2018-11-20T02:53:05.148Z,99.99
2018-11-20T02:54:05.066Z,99.99
2018-11-20T02:55:05.202Z,99.99
2018-11-20T02:56:05.099Z,99.99
2018-11-20T02:57:05.102Z,99.99
2018-11-20T02:58:05.388Z,99.99
2018-11-20T02:59:05.121Z,99.99
2018-11-20T03:00:05.132Z,99.99
2018-11-20T03:01:05.148Z,99.99
2018-11-20T03:02:05.145Z,99.99
2018-11-20T03:03:05.441Z,99.99
2018-11-20T03:04:05.184Z,99.99
2018-11-20T03:05:05.311Z,99.99
2018-11-20T03:06:05.206Z,99.99
2018-11-20T03:07:05.212Z,99.99
2018-11-20T03:08:05.327Z,99.99
2018-11-20T03:09:05.362Z,99.99
2018-11-20T03:10:05.257Z,99.99
2018-11-20T03:11:05.259Z,99.99
2018-11-20T03:12:05.286Z,99.99
2018-11-20T03:13:05.553Z,99.99
2018-11-20T03:14:05.415Z,99.99
2018-11-20T03:15:05.300Z,99.99
2018-11-20T03:16:05.307Z,99.99
2018-11-20T03:17:05.449Z,99.99
2018-11-20T03:18:05.565Z,99.99
2018-11-20T03:19:05.342Z,99.99
2018-11-20T03:20:05.484Z,99.99
2018-11-20T03:21:05.379Z,99.99
2018-11-20T03:22:05.394Z,99.99
2018-11-20T03:23:05.496Z,99.99
2018-11-20T03:24:05.529Z,99.99
2018-11-20T03:25:05.427Z,99.99
2018-11-20T03:26:05.437Z,99.99
2018-11-20T03:27:05.675Z,99.99
2018-11-20T03:28:05.510Z,99.99
2018-11-20T03:29:05.463Z,99.99
2018-11-20T03:30:05.472Z,99.99
2018-11-20T03:31:05.480Z,99.99
2018-11-20T03:32:05.497Z,99.99
2018-11-20T03:33:05.788Z,99.99
2018-11-20T03:34:05.521Z,99.99
2018-11-20T03:35:05.654Z,99.99
2018-11-20T03:36:05.596Z,99.99
2018-11-20T03:37:05.678Z,99.99
2018-11-20T03:38:05.786Z,99.99
2018-11-20T03:39:05.581Z,99.99
2018-11-20T03:40:05.587Z,99.99
2018-11-20T03:41:05.608Z,99.99
2018-11-20T03:42:05.616Z,99.99
2018-11-20T03:43:05.848Z,99.99
2018-11-20T03:44:05.627Z,99.99
2018-11-20T03:45:05.639Z,99.99
2018-11-20T03:46:05.683Z,99.99
2018-11-20T03:47:05.686Z,99.99
2018-11-20T03:48:05.912Z,99.99
2018-11-20T03:49:05.692Z,99.99
2018-11-20T03:50:05.744Z,99.99
2018-11-20T03:51:05.732Z,99.99
2018-11-20T03:52:05.718Z,99.99
2018-11-20T03:53:05.880Z,99.99
2018-11-20T03:54:05.741Z,99.99
2018-11-20T03:55:05.883Z,99.99
2018-11-20T03:56:05.788Z,99.99
2018-11-20T03:57:05.781Z,99.99
2018-11-20T03:58:05.885Z,99.99
2018-11-20T03:59:05.812Z,99.99
2018-11-20T04:00:05.825Z,99.99
2018-11-20T04:01:05.958Z,99.99
2018-11-20T04:02:05.837Z,99.99
2018-11-20T04:03:05.951Z,99.99
2018-11-20T04:04:05.860Z,99.99
2018-11-20T04:05:05.995Z,99.99
2018-11-20T04:06:05.896Z,99.99
2018-11-20T04:07:06.019Z,99.99
2018-11-20T04:08:06.018Z,99.99
2018-11-20T04:09:05.919Z,99.99
2018-11-20T04:10:06.053Z,99.99
2018-11-20T04:11:05.962Z,99.99
2018-11-20T04:12:05.965Z,99.99
2018-11-20T04:13:06.186Z,99.99
2018-11-20T04:14:06.104Z,99.99
2018-11-20T04:15:05.997Z,99.99
2018-11-20T04:16:06.007Z,99.99
2018-11-20T04:17:06.014Z,99.99
2018-11-20T04:18:06.299Z,99.99
2018-11-20T04:19:06.162Z,99.99
2018-11-20T04:20:06.070Z,99.99
2018-11-20T04:21:06.065Z,99.99
2018-11-20T04:22:06.192Z,99.99
2018-11-20T04:23:06.193Z,99.99
2018-11-20T04:24:06.094Z,99.99
2018-11-20T04:25:06.092Z,99.99
2018-11-20T04:26:06.242Z,99.99
2018-11-20T04:27:06.255Z,99.99
2018-11-20T04:28:06.234Z,99.99
2018-11-20T04:29:06.145Z,99.99
2018-11-20T04:30:06.158Z,99.99
2018-11-20T04:31:06.215Z,99.99
2018-11-20T04:32:06.308Z,99.99
2018-11-20T04:33:06.317Z,99.99
2018-11-20T04:34:06.256Z,99.99
2018-11-20T04:35:06.236Z,99.99
2018-11-20T04:36:06.361Z,99.99
2018-11-20T04:37:06.350Z,99.99
2018-11-20T04:38:06.261Z,99.99
2018-11-20T04:39:06.393Z,99.99
2018-11-20T04:40:06.403Z,99.99
2018-11-20T04:41:06.338Z,99.99
2018-11-20T04:42:06.445Z,99.99
2018-11-20T04:43:06.316Z,99.99
2018-11-20T04:44:06.319Z,99.99
2018-11-20T04:45:06.336Z,99.99
2018-11-20T04:46:06.348Z,99.99
2018-11-20T04:47:06.637Z,99.99
2018-11-20T04:48:06.365Z,99.99
2018-11-20T04:49:06.378Z,99.99
2018-11-20T04:50:06.543Z,99.99
2018-11-20T04:51:06.400Z,99.99
2018-11-20T04:52:06.564Z,99.99
2018-11-20T04:53:06.435Z,99.99
2018-11-20T04:54:06.437Z,99.99
2018-11-20T04:55:06.574Z,99.99
2018-11-20T04:56:06.466Z,99.99
2018-11-20T04:57:06.702Z,99.99
2018-11-20T04:58:06.483Z,99.99
2018-11-20T04:59:06.510Z,99.99
2018-11-20T05:00:06.635Z,99.99
2018-11-20T05:01:06.532Z,99.99
2018-11-20T05:02:06.805Z,99.99
2018-11-20T05:03:06.666Z,99.99
2018-11-20T05:04:06.678Z,99.99
2018-11-20T05:05:06.695Z,99.99
2018-11-20T05:06:06.587Z,99.99
2018-11-20T05:07:06.690Z,99.99
2018-11-20T05:08:06.607Z,99.99
2018-11-20T05:09:06.625Z,99.99
2018-11-20T05:10:06.748Z,99.99
2018-11-20T05:11:06.764Z,99.99
2018-11-20T05:12:06.873Z,99.99
2018-11-20T05:13:06.733Z,99.99
2018-11-20T05:15:06.679Z,99.99
2018-11-20T05:16:06.742Z,99.99
2018-11-20T05:17:06.816Z,99.99
2018-11-20T05:18:06.839Z,99.99
2018-11-20T05:19:06.780Z,99.99
2018-11-20T05:20:06.736Z,99.99
2018-11-20T05:21:06.750Z,99.99
2018-11-20T05:22:06.774Z,99.99
2018-11-20T05:23:06.837Z,99.99
2018-11-20T05:24:06.792Z,99.99
2018-11-20T05:25:06.806Z,99.99
2018-11-20T05:26:06.818Z,99.99
2018-11-20T05:27:06.947Z,99.99
2018-11-20T05:28:07.014Z,99.99
2018-11-20T05:29:06.972Z,99.99
2018-11-20T05:30:06.865Z,99.99
2018-11-20T05:31:06.958Z,99.99
2018-11-20T05:32:06.887Z,99.99
2018-11-20T05:33:07.018Z,99.99
2018-11-20T05:34:07.031Z,99.99
2018-11-20T05:35:07.037Z,99.99
2018-11-20T05:36:07.050Z,99.99
2018-11-20T05:37:06.960Z,99.99
2018-11-20T05:38:07.008Z,99.99
2018-11-20T05:39:06.974Z,99.99
2018-11-20T05:40:07.061Z,99.99
2018-11-20T05:41:07.003Z,99.99
2018-11-20T05:42:06.995Z,99.99
2018-11-20T05:43:07.110Z,99.99
2018-11-20T05:44:07.014Z,99.99
2018-11-20T05:45:07.162Z,99.99
2018-11-20T05:46:07.060Z,99.99
2018-11-20T05:47:07.052Z,99.99
2018-11-20T05:48:07.070Z,99.99
2018-11-20T05:49:07.350Z,99.99
2018-11-20T05:50:07.090Z,99.99
2018-11-20T05:51:07.224Z,99.99
2018-11-20T05:52:07.104Z,99.99
2018-11-20T05:53:07.248Z,99.99
2018-11-20T05:54:07.253Z,99.99
2018-11-20T05:55:07.163Z,99.99
2018-11-20T05:56:07.163Z,99.99
2018-11-20T05:57:07.295Z,99.99
2018-11-20T05:58:07.360Z,99.99
2018-11-20T05:59:07.293Z,99.99
2018-11-20T06:00:07.223Z,99.99
2018-11-20T06:01:07.324Z,99.99
2018-11-20T06:02:07.236Z,99.99
2018-11-20T06:03:07.368Z,99.99
2018-11-20T06:04:07.257Z,99.99
2018-11-20T06:05:07.268Z,99.99
2018-11-20T06:06:07.484Z,99.99
2018-11-20T06:07:07.416Z,99.99
2018-11-20T06:08:07.312Z,99.99
2018-11-20T06:09:07.336Z,99.99
2018-11-20T06:10:07.450Z,99.99
2018-11-20T06:11:07.438Z,99.99
2018-11-20T06:12:07.343Z,99.99
2018-11-20T06:13:07.479Z,99.99
2018-11-20T06:14:07.374Z,99.99
2018-11-20T06:15:07.508Z,99.99
2018-11-20T06:16:07.506Z,99.99
2018-11-20T06:17:07.533Z,99.99
2018-11-20T06:18:07.421Z,99.99
2018-11-20T06:19:07.529Z,99.99
2018-11-20T06:20:07.567Z,99.99
2018-11-20T06:21:07.680Z,99.99
2018-11-20T06:22:07.585Z,99.99
2018-11-20T06:23:07.603Z,99.99
2018-11-20T06:24:07.488Z,99.99
2018-11-20T06:25:07.497Z,99.99
2018-11-20T06:26:07.602Z,99.99
2018-11-20T06:27:07.527Z,99.99
2018-11-20T06:28:07.571Z,99.99
2018-11-20T06:29:07.676Z,99.99
2018-11-20T06:30:07.550Z,99.99
2018-11-20T06:31:07.683Z,99.99
2018-11-20T06:32:07.703Z,99.99
2018-11-20T06:33:07.715Z,99.99
2018-11-20T06:34:07.605Z,99.99
2018-11-20T06:35:07.683Z,99.99
2018-11-20T06:36:07.726Z,99.99
2018-11-20T06:37:07.639Z,99.99
2018-11-20T06:38:07.646Z,99.99
2018-11-20T06:39:07.646Z,99.99
2018-11-20T06:40:07.793Z,99.99
2018-11-20T06:41:07.715Z,99.99
2018-11-20T06:42:07.744Z,99.99
2018-11-20T06:43:07.706Z,99.99
2018-11-20T06:44:07.866Z,99.99
2018-11-20T06:45:07.739Z,99.99
2018-11-20T06:46:07.751Z,99.99
2018-11-20T06:47:07.911Z,99.99
2018-11-20T06:48:07.773Z,99.99
2018-11-20T06:49:07.887Z,99.99
2018-11-20T06:50:07.914Z,99.99
2018-11-20T06:51:07.794Z,99.99
2018-11-20T06:52:07.812Z,99.99
2018-11-20T06:53:08.059Z,99.99
2018-11-20T06:54:07.931Z,99.99
2018-11-20T06:55:07.847Z,99.99
2018-11-20T06:56:07.865Z,99.99
2018-11-20T06:57:07.938Z,99.99
2018-11-20T06:58:07.875Z,99.99
2018-11-20T06:59:08.116Z,99.99
2018-11-20T07:00:07.910Z,99.99
2018-11-20T07:01:08.040Z,99.99
2018-11-20T07:02:07.930Z,99.99
2018-11-20T07:03:08.061Z,99.99
2018-11-20T07:04:07.992Z,99.99
2018-11-20T07:05:08.078Z,99.99
2018-11-20T07:06:08.244Z,99.99
2018-11-20T07:07:08.008Z,99.99
2018-11-20T07:08:08.171Z,99.99
2018-11-20T07:09:08.024Z,99.99
2018-11-20T07:10:08.037Z,99.99
2018-11-20T07:11:08.182Z,99.99
2018-11-20T07:12:08.046Z,99.99
2018-11-20T07:13:08.053Z,99.99
2018-11-20T07:14:08.188Z,99.99
2018-11-20T07:15:08.289Z,99.99
2018-11-20T07:16:08.629Z,99.99
2018-11-20T07:17:08.223Z,99.99
2018-11-20T07:18:08.231Z,99.99
2018-11-20T07:19:08.130Z,99.99
2018-11-20T07:20:08.132Z,99.99
2018-11-20T07:21:08.312Z,99.99
2018-11-20T07:22:08.160Z,99.99
2018-11-20T07:23:08.181Z,99.99
2018-11-20T07:24:08.299Z,99.99
2018-11-20T07:25:08.195Z,99.99
2018-11-20T07:26:08.342Z,99.99
2018-11-20T07:27:08.333Z,99.99
2018-11-20T07:28:08.347Z,99.99
2018-11-20T07:29:08.226Z,99.99
2018-11-20T07:30:08.289Z,99.99
2018-11-20T07:31:08.438Z,99.99
2018-11-20T07:32:08.281Z,99.99
2018-11-20T07:33:08.274Z,99.99
2018-11-20T07:34:08.297Z,99.99
2018-11-20T07:35:08.339Z,99.99
2018-11-20T07:36:08.687Z,99.99
2018-11-20T07:37:08.463Z,99.99
2018-11-20T07:38:08.334Z,99.99
2018-11-20T07:39:08.358Z,99.99
2018-11-20T07:40:08.352Z,99.99
2018-11-20T07:41:08.413Z,99.99
2018-11-20T07:42:08.381Z,99.99
2018-11-20T07:43:08.406Z,99.99
2018-11-20T07:44:08.574Z,99.99
2018-11-20T07:45:08.406Z,99.99
2018-11-20T07:46:08.523Z,99.99
2018-11-20T07:47:08.449Z,99.99
2018-11-20T07:48:08.459Z,99.99
2018-11-20T07:49:08.477Z,99.99
2018-11-20T07:50:08.470Z,99.99
2018-11-20T07:51:08.586Z,99.99
2018-11-20T07:52:08.507Z,99.99
2018-11-20T07:53:08.497Z,99.99
2018-11-20T07:54:08.528Z,99.99
2018-11-20T07:55:08.682Z,99.99
2018-11-20T07:56:08.806Z,99.99
2018-11-20T07:57:08.550Z,99.99
2018-11-20T07:58:08.590Z,99.99
2018-11-20T07:59:08.567Z,99.99
2018-11-20T08:00:08.593Z,99.99
2018-11-20T08:01:08.744Z,99.99
2018-11-20T08:02:08.638Z,99.99
2018-11-20T08:03:08.608Z,99.99
2018-11-20T08:04:08.624Z,99.99
2018-11-20T08:05:08.765Z,99.99
2018-11-20T08:06:08.812Z,99.99
2018-11-20T08:07:08.785Z,99.99
2018-11-20T08:08:08.666Z,99.99
2018-11-20T08:09:08.692Z,99.99
2018-11-20T08:10:08.700Z,99.99
2018-11-20T08:11:08.888Z,99.99
2018-11-20T08:12:08.764Z,99.99
2018-11-20T08:13:08.859Z,99.99
2018-11-20T08:14:08.749Z,99.99
2018-11-20T08:15:08.767Z,99.99
2018-11-20T08:16:09.035Z,99.99
2018-11-20T08:17:08.775Z,99.99
2018-11-20T08:18:08.914Z,99.99
2018-11-20T08:19:08.794Z,99.99
2018-11-20T08:20:08.933Z,99.99
2018-11-20T08:21:08.995Z,99.99
2018-11-20T08:22:08.828Z,99.99
2018-11-20T08:23:08.846Z,99.99
2018-11-20T08:24:08.852Z,99.99
2018-11-20T08:25:08.976Z,99.99
2018-11-20T08:26:09.159Z,99.99
2018-11-20T08:27:09.012Z,99.99
2018-11-20T08:28:08.906Z,99.99
2018-11-20T08:29:08.905Z,99.99
2018-11-20T08:30:09.095Z,99.99
2018-11-20T08:31:09.123Z,99.99
2018-11-20T08:32:08.966Z,99.99
2018-11-20T08:33:08.964Z,99.99
2018-11-20T08:34:09.130Z,99.99
2018-11-20T08:35:09.188Z,99.99
2018-11-20T08:36:08.986Z,99.99
2018-11-20T08:37:09.009Z,99.99
2018-11-20T08:38:09.015Z,99.99
2018-11-20T08:39:09.044Z,99.99
2018-11-20T08:40:09.185Z,99.99
2018-11-20T08:41:09.052Z,99.99
2018-11-20T08:42:09.243Z,99.99
2018-11-20T08:43:09.075Z,99.99
2018-11-20T08:44:09.205Z,99.99
2018-11-20T08:45:09.119Z,99.99
2018-11-20T08:46:09.259Z,99.99
2018-11-20T08:47:09.121Z,99.99
2018-11-20T08:48:09.162Z,99.99
2018-11-20T08:49:09.144Z,99.99
2018-11-20T08:50:09.166Z,99.99
2018-11-20T08:51:09.238Z,99.99
2018-11-20T08:52:09.187Z,99.99
2018-11-20T08:53:09.197Z,99.99
2018-11-20T08:54:09.223Z,99.99
2018-11-20T08:55:09.338Z,99.99
2018-11-20T08:56:09.385Z,99.99
2018-11-20T08:57:09.440Z,99.99
2018-11-20T08:58:09.260Z,99.99
2018-11-20T08:59:09.262Z,99.99
2018-11-20T09:00:09.267Z,99.99
2018-11-20T09:01:09.561Z,99.99
2018-11-20T09:02:09.460Z,99.99
2018-11-20T09:03:09.518Z,99.99
2018-11-20T09:04:09.322Z,99.99
2018-11-20T09:05:09.459Z,99.99
2018-11-20T09:06:09.512Z,99.99
2018-11-20T09:07:09.346Z,99.99
2018-11-20T09:08:09.489Z,99.99
2018-11-20T09:09:09.376Z,99.99
2018-11-20T09:10:09.536Z,99.99
2018-11-20T09:11:09.557Z,99.99
2018-11-20T09:12:09.453Z,99.99
2018-11-20T09:13:09.434Z,99.99
2018-11-20T09:14:09.568Z,99.99
2018-11-20T09:15:09.447Z,99.99
2018-11-20T09:16:09.609Z,99.99
2018-11-20T09:17:09.480Z,99.99
2018-11-20T09:18:09.495Z,99.99
2018-11-20T09:19:09.623Z,99.99
2018-11-20T09:20:09.508Z,99.99
2018-11-20T09:21:09.706Z,99.99
2018-11-20T09:22:09.663Z,99.99
2018-11-20T09:23:09.547Z,99.99
2018-11-20T09:24:09.561Z,99.99
2018-11-20T09:25:09.563Z,99.99
2018-11-20T09:26:09.684Z,99.99
2018-11-20T09:27:09.726Z,99.99
2018-11-20T09:28:09.606Z,99.99
2018-11-20T09:29:09.745Z,99.99
2018-11-20T09:30:09.629Z,99.99
2018-11-20T09:31:09.838Z,99.99
2018-11-20T09:32:09.673Z,99.99
2018-11-20T09:33:09.688Z,99.99
2018-11-20T09:34:09.705Z,99.99
2018-11-20T09:35:09.835Z,99.99
2018-11-20T09:36:09.900Z,99.99
2018-11-20T09:37:09.727Z,99.99
2018-11-20T09:38:09.728Z,99.99
2018-11-20T09:39:09.873Z,99.99
2018-11-20T09:40:09.765Z,99.99
2018-11-20T09:41:09.998Z,99.99
2018-11-20T09:42:09.912Z,99.99
2018-11-20T09:43:09.796Z,99.99
2018-11-20T09:44:09.806Z,99.99
2018-11-20T09:45:09.944Z,99.99
2018-11-20T09:46:10.109Z,99.99
2018-11-20T09:47:09.970Z,99.99
2018-11-20T09:48:09.865Z,99.99
2018-11-20T09:49:09.890Z,99.99
2018-11-20T09:50:10.010Z,99.99
2018-11-20T09:51:10.050Z,99.99
2018-11-20T09:52:10.014Z,99.99
2018-11-20T09:53:09.928Z,99.99
2018-11-20T09:54:10.089Z,99.99
2018-11-20T09:55:09.951Z,99.99
2018-11-20T09:56:10.129Z,99.99
2018-11-20T09:57:09.974Z,99.99
2018-11-20T09:58:09.992Z,99.99
2018-11-20T09:59:10.002Z,99.99
2018-11-20T10:00:10.011Z,99.99
2018-11-20T10:01:10.135Z,99.99
2018-11-20T10:02:10.030Z,99.99
2018-11-20T10:03:10.172Z,99.99
2018-11-20T10:04:10.070Z,99.99
2018-11-20T10:05:10.087Z,99.99
2018-11-20T10:06:10.196Z,99.99
2018-11-20T10:07:10.231Z,99.99
2018-11-20T10:08:10.240Z,99.99
2018-11-20T10:09:10.137Z,99.99
2018-11-20T10:10:10.262Z,99.99
2018-11-20T10:11:10.356Z,99.99
2018-11-20T10:12:10.294Z,99.99
2018-11-20T10:13:10.197Z,99.99
2018-11-20T10:14:10.417Z,99.99
2018-11-20T10:15:10.386Z,99.99
2018-11-20T10:16:10.393Z,99.99
2018-11-20T10:17:10.278Z,99.99
2018-11-20T10:18:10.403Z,99.99
2018-11-20T10:19:10.267Z,99.99
2018-11-20T10:20:10.271Z,99.99
2018-11-20T10:21:10.286Z,99.99
2018-11-20T10:22:10.501Z,99.99
2018-11-20T10:23:10.489Z,99.99
2018-11-20T10:24:10.340Z,99.99
2018-11-20T10:25:10.371Z,99.99
2018-11-20T10:26:10.484Z,99.99
2018-11-20T10:27:10.367Z,99.99
2018-11-20T10:28:10.651Z,99.99
2018-11-20T10:29:10.400Z,99.99
2018-11-20T10:31:10.411Z,99.99
2018-11-20T10:32:10.433Z,99.99
2018-11-20T10:33:10.628Z,99.99
2018-11-20T10:34:10.488Z,99.99
2018-11-20T10:35:10.511Z,99.99
2018-11-20T10:36:10.493Z,99.99
2018-11-20T10:37:10.537Z,99.99
2018-11-20T10:38:10.563Z,99.99
2018-11-20T10:39:10.532Z,99.99
2018-11-20T10:40:10.570Z,99.99
2018-11-20T10:41:10.671Z,99.99
2018-11-20T10:42:10.575Z,99.99
2018-11-20T10:43:10.671Z,99.99
2018-11-20T10:44:10.715Z,99.99
2018-11-20T10:45:10.652Z,99.99
2018-11-20T10:46:10.678Z,99.99
2018-11-20T10:47:10.630Z,99.99
2018-11-20T10:48:10.692Z,99.99
2018-11-20T10:49:10.780Z,99.99
2018-11-20T10:50:10.686Z,99.99
2018-11-20T10:51:10.751Z,99.99
2018-11-20T10:52:10.719Z,99.99
2018-11-20T10:53:10.873Z,99.99
2018-11-20T10:54:10.847Z,99.99
2018-11-20T10:55:10.747Z,99.99
2018-11-20T10:56:10.873Z,99.99
2018-11-20T10:57:10.805Z,99.99
2018-11-20T10:58:10.923Z,99.99
2018-11-20T10:59:10.911Z,99.99
2018-11-20T11:00:10.801Z,99.99
2018-11-20T11:01:10.813Z,99.99
2018-11-20T11:02:10.830Z,99.99
2018-11-20T11:03:11.116Z,99.99
2018-11-20T11:04:11.025Z,99.99
2018-11-20T11:05:10.999Z,99.99
2018-11-20T11:06:10.883Z,99.99
2018-11-20T11:07:11.289Z,99.99
2018-11-20T11:08:11.183Z,99.99
2018-11-20T11:09:10.951Z,99.99
2018-11-20T11:10:11.065Z,99.99
2018-11-20T11:11:10.976Z,99.99
2018-11-20T11:12:11.181Z,99.99
2018-11-20T11:13:11.119Z,99.99
2018-11-20T11:14:11.121Z,99.99
2018-11-20T11:15:11.001Z,99.99
2018-11-20T11:16:11.024Z,99.99
2018-11-20T11:17:11.047Z,99.99
2018-11-20T11:18:11.158Z,99.99
2018-11-20T11:19:11.190Z,99.99
2018-11-20T11:20:11.077Z,99.99
2018-11-20T11:21:11.196Z,99.99
2018-11-20T11:22:11.101Z,99.99
2018-11-20T11:23:11.298Z,99.99
2018-11-20T11:24:11.143Z,99.99
2018-11-20T11:25:11.143Z,99.99
2018-11-20T11:26:11.174Z,99.99
2018-11-20T11:27:11.321Z,99.99
2018-11-20T11:28:11.320Z,99.99
2018-11-20T11:29:11.587Z,99.99
2018-11-20T11:30:11.341Z,99.99
2018-11-20T11:31:11.252Z,99.99
2018-11-20T11:32:11.527Z,99.99
2018-11-20T11:33:11.267Z,99.99
2018-11-20T11:34:11.302Z,99.99
2018-11-20T11:35:11.304Z,99.99
2018-11-20T11:36:11.311Z,99.99
2018-11-20T11:37:11.496Z,99.99
2018-11-20T11:38:11.336Z,99.99
2018-11-20T11:39:11.360Z,99.99
2018-11-20T11:40:11.501Z,99.99
2018-11-20T11:41:11.510Z,99.99
2018-11-20T11:42:11.498Z,99.99
2018-11-20T11:43:11.427Z,99.99
2018-11-20T11:44:11.435Z,99.99
2018-11-20T11:45:11.452Z,99.99
2018-11-20T11:46:11.469Z,99.99
2018-11-20T11:47:11.623Z,99.99
2018-11-20T11:48:11.509Z,99.99
2018-11-20T11:49:11.518Z,99.99
2018-11-20T11:50:11.531Z,99.99
2018-11-20T11:51:11.552Z,99.99
2018-11-20T11:52:11.659Z,99.99
2018-11-20T11:53:11.607Z,99.99
2018-11-20T11:54:11.586Z,99.64
2018-11-20T11:55:11.613Z,99.93
2018-11-20T11:56:11.619Z,97.81
2018-11-20T11:57:11.760Z,98.68
2018-11-20T11:58:11.653Z,99.99
2018-11-20T11:59:11.679Z,99.99
2018-11-20T12:00:11.693Z,99.99
2018-11-20T12:01:11.702Z,99.99
2018-11-20T12:03:11.743Z,99.99
2018-11-20T12:04:11.765Z,99.99
2018-11-20T12:05:11.766Z,99.99
2018-11-20T12:06:11.785Z,99.99
2018-11-20T12:07:11.901Z,99.99
2018-11-20T12:08:11.825Z,99.99
2018-11-20T12:09:11.952Z,99.59
2018-11-20T12:10:11.856Z,98.44
2018-11-20T12:11:11.877Z,98.82
2018-11-20T12:12:12.027Z,97.96
2018-11-20T12:14:11.936Z,96.61
2018-11-20T12:15:11.934Z,98.15
2018-11-20T12:16:11.954Z,99.06
2018-11-20T12:17:12.055Z,98.87
2018-11-20T12:18:11.972Z,99.93
2018-11-20T12:19:11.989Z,99.99
2018-11-20T12:20:12.136Z,99.99
2018-11-20T12:21:12.029Z,99.99
2018-11-20T12:22:12.268Z,99.99
2018-11-20T12:23:12.057Z,99.99
2018-11-20T12:24:12.077Z,99.99
2018-11-20T12:25:12.092Z,99.99
2018-11-20T12:26:12.109Z,99.99
2018-11-20T12:27:12.265Z,99.99
2018-11-20T12:28:12.145Z,99.99
2018-11-20T12:29:12.202Z,99.99
2018-11-20T12:30:13.434Z,99.99
2018-11-20T12:31:12.309Z,99.99
2018-11-20T12:32:12.472Z,99.99
2018-11-20T12:33:12.234Z,99.99
2018-11-20T12:34:12.222Z,99.99
2018-11-20T12:35:13.626Z,99.99
2018-11-20T12:36:14.236Z,99.99
2018-11-20T12:37:12.424Z,99.99
2018-11-20T12:38:12.283Z,99.99
2018-11-20T12:39:12.430Z,99.99
2018-11-20T12:40:12.336Z,99.99
2018-11-20T12:41:12.375Z,99.99
2018-11-20T12:42:12.529Z,99.99
2018-11-20T12:43:12.384Z,99.99
2018-11-20T12:44:12.379Z,99.99
2018-11-20T12:45:13.532Z,99.99
2018-11-20T12:46:13.261Z,99.99
2018-11-20T12:47:15.057Z,99.99
2018-11-20T12:48:12.459Z,99.99
2018-11-20T12:49:12.453Z,99.99
2018-11-20T12:50:12.472Z,99.99
2018-11-20T12:51:12.616Z,99.99
2018-11-20T12:52:12.692Z,99.99
2018-11-20T12:53:12.526Z,99.99
2018-11-20T12:54:14.962Z,99.99
2018-11-20T12:55:12.559Z,99.99
2018-11-20T12:56:14.027Z,99.99